sensor_id;sensor_type;location;lat;lon;timestamp;temperature;humidity
10411;DHT22;5251;52.112;8.606;2023-02-28T00:01:23;1.20;93.80
10411;DHT22;5251;52.112;8.606;2023-02-28T00:03:48;1.20;93.90
10411;DHT22;5251;52.112;8.606;2023-02-28T00:06:14;1.20;93.90
10411;DHT22;5251;52.112;8.606;2023-02-28T00:08:39;1.10;93.90
10411;DHT22;5251;52.112;8.606;2023-02-28T00:11:11;1.10;94.00
10411;DHT22;5251;52.112;8.606;2023-02-28T00:13:43;1.10;94.00
10411;DHT22;5251;52.112;8.606;2023-02-28T00:16:13;1.10;94.10
10411;DHT22;5251;52.112;8.606;2023-02-28T00:18:40;1.10;94.10
10411;DHT22;5251;52.112;8.606;2023-02-28T00:21:06;1.10;94.10
10411;DHT22;5251;52.112;8.606;2023-02-28T00:23:32;1.10;94.20
10411;DHT22;5251;52.112;8.606;2023-02-28T00:25:57;1.00;94.30
10411;DHT22;5251;52.112;8.606;2023-02-28T00:28:24;1.00;94.40
10411;DHT22;5251;52.112;8.606;2023-02-28T00:30:49;1.00;94.40
10411;DHT22;5251;52.112;8.606;2023-02-28T00:33:15;1.00;94.40
10411;DHT22;5251;52.112;8.606;2023-02-28T00:35:41;1.00;94.40
10411;DHT22;5251;52.112;8.606;2023-02-28T00:38:07;1.00;94.40
10411;DHT22;5251;52.112;8.606;2023-02-28T00:40:33;1.00;94.40
10411;DHT22;5251;52.112;8.606;2023-02-28T00:42:59;1.00;94.40
10411;DHT22;5251;52.112;8.606;2023-02-28T00:45:24;1.00;94.40
10411;DHT22;5251;52.112;8.606;2023-02-28T00:47:50;1.00;94.40
10411;DHT22;5251;52.112;8.606;2023-02-28T00:50:18;1.00;94.50
10411;DHT22;5251;52.112;8.606;2023-02-28T00:52:43;1.00;94.70
10411;DHT22;5251;52.112;8.606;2023-02-28T00:55:09;1.00;94.70
10411;DHT22;5251;52.112;8.606;2023-02-28T00:57:35;1.00;94.90
10411;DHT22;5251;52.112;8.606;2023-02-28T01:00:00;1.00;95.00
10411;DHT22;5251;52.112;8.606;2023-02-28T01:02:26;1.10;95.10
10411;DHT22;5251;52.112;8.606;2023-02-28T01:04:52;1.10;95.20
10411;DHT22;5251;52.112;8.606;2023-02-28T01:07:17;1.10;95.20
10411;DHT22;5251;52.112;8.606;2023-02-28T01:09:43;1.10;95.20
10411;DHT22;5251;52.112;8.606;2023-02-28T01:12:09;1.20;95.30
10411;DHT22;5251;52.112;8.606;2023-02-28T01:14:35;1.20;95.40
10411;DHT22;5251;52.112;8.606;2023-02-28T01:17:01;1.20;95.40
10411;DHT22;5251;52.112;8.606;2023-02-28T01:19:27;1.20;95.30
10411;DHT22;5251;52.112;8.606;2023-02-28T01:21:53;1.30;95.40
10411;DHT22;5251;52.112;8.606;2023-02-28T01:24:18;1.30;95.40
10411;DHT22;5251;52.112;8.606;2023-02-28T01:26:44;1.30;95.40
10411;DHT22;5251;52.112;8.606;2023-02-28T01:29:10;1.30;95.30
10411;DHT22;5251;52.112;8.606;2023-02-28T01:31:36;1.30;95.40
10411;DHT22;5251;52.112;8.606;2023-02-28T01:34:02;1.30;95.30
10411;DHT22;5251;52.112;8.606;2023-02-28T01:36:28;1.30;95.30
10411;DHT22;5251;52.112;8.606;2023-02-28T01:38:54;1.30;95.30
10411;DHT22;5251;52.112;8.606;2023-02-28T01:41:24;1.30;95.30
10411;DHT22;5251;52.112;8.606;2023-02-28T01:43:52;1.30;95.20
10411;DHT22;5251;52.112;8.606;2023-02-28T01:46:18;1.30;95.20
10411;DHT22;5251;52.112;8.606;2023-02-28T01:51:30;1.20;95.10
10411;DHT22;5251;52.112;8.606;2023-02-28T01:54:07;1.20;95.10
10411;DHT22;5251;52.112;8.606;2023-02-28T01:56:41;1.20;95.00
10411;DHT22;5251;52.112;8.606;2023-02-28T01:59:09;1.10;94.90
10411;DHT22;5251;52.112;8.606;2023-02-28T02:01:36;1.10;94.90
10411;DHT22;5251;52.112;8.606;2023-02-28T02:04:02;1.10;94.80
10411;DHT22;5251;52.112;8.606;2023-02-28T02:06:34;1.00;94.80
10411;DHT22;5251;52.112;8.606;2023-02-28T02:09:00;1.00;94.80
10411;DHT22;5251;52.112;8.606;2023-02-28T02:11:26;1.00;94.70
10411;DHT22;5251;52.112;8.606;2023-02-28T02:14:30;0.90;94.60
10411;DHT22;5251;52.112;8.606;2023-02-28T02:20:16;0.80;94.90
10411;DHT22;5251;52.112;8.606;2023-02-28T02:28:57;0.70;95.20
10411;DHT22;5251;52.112;8.606;2023-02-28T02:31:33;0.70;95.40
10411;DHT22;5251;52.112;8.606;2023-02-28T02:37:35;0.80;95.50
10411;DHT22;5251;52.112;8.606;2023-02-28T02:40:16;0.80;95.60
10411;DHT22;5251;52.112;8.606;2023-02-28T02:45:27;0.80;95.60
10411;DHT22;5251;52.112;8.606;2023-02-28T02:48:01;0.80;95.60
10411;DHT22;5251;52.112;8.606;2023-02-28T02:50:39;0.80;95.60
10411;DHT22;5251;52.112;8.606;2023-02-28T02:53:08;0.80;95.60
10411;DHT22;5251;52.112;8.606;2023-02-28T02:55:38;0.80;95.60
10411;DHT22;5251;52.112;8.606;2023-02-28T02:58:08;0.80;95.60
10411;DHT22;5251;52.112;8.606;2023-02-28T03:00:42;0.80;95.70
10411;DHT22;5251;52.112;8.606;2023-02-28T03:03:09;0.80;95.70
10411;DHT22;5251;52.112;8.606;2023-02-28T03:05:42;0.80;95.70
10411;DHT22;5251;52.112;8.606;2023-02-28T03:08:10;0.70;95.60
10411;DHT22;5251;52.112;8.606;2023-02-28T03:10:45;0.70;95.60
10411;DHT22;5251;52.112;8.606;2023-02-28T03:13:52;0.70;95.60
10411;DHT22;5251;52.112;8.606;2023-02-28T03:16:33;0.70;95.60
10411;DHT22;5251;52.112;8.606;2023-02-28T03:19:24;0.70;95.60
10411;DHT22;5251;52.112;8.606;2023-02-28T03:25:02;0.60;95.60
10411;DHT22;5251;52.112;8.606;2023-02-28T03:27:34;0.50;95.50
10411;DHT22;5251;52.112;8.606;2023-02-28T03:30:10;0.50;95.60
10411;DHT22;5251;52.112;8.606;2023-02-28T03:32:42;0.50;95.60
10411;DHT22;5251;52.112;8.606;2023-02-28T03:35:21;0.40;95.60
10411;DHT22;5251;52.112;8.606;2023-02-28T03:37:58;0.40;95.70
10411;DHT22;5251;52.112;8.606;2023-02-28T03:40:30;0.30;95.60
10411;DHT22;5251;52.112;8.606;2023-02-28T03:43:07;0.30;95.70
10411;DHT22;5251;52.112;8.606;2023-02-28T03:45:36;0.30;95.70
10411;DHT22;5251;52.112;8.606;2023-02-28T03:48:25;0.20;95.60
10411;DHT22;5251;52.112;8.606;2023-02-28T03:50:55;0.20;95.60
10411;DHT22;5251;52.112;8.606;2023-02-28T03:53:31;0.20;95.60
10411;DHT22;5251;52.112;8.606;2023-02-28T03:56:16;0.10;95.60
10411;DHT22;5251;52.112;8.606;2023-02-28T03:59:00;0.10;95.60
10411;DHT22;5251;52.112;8.606;2023-02-28T04:03:56;0.00;95.70
10411;DHT22;5251;52.112;8.606;2023-02-28T04:06:22;0.00;95.80
10411;DHT22;5251;52.112;8.606;2023-02-28T04:08:50;-0.10;95.70
10411;DHT22;5251;52.112;8.606;2023-02-28T04:11:23;-0.10;95.80
10411;DHT22;5251;52.112;8.606;2023-02-28T04:13:49;-0.10;95.80
10411;DHT22;5251;52.112;8.606;2023-02-28T04:16:15;-0.10;95.80
10411;DHT22;5251;52.112;8.606;2023-02-28T04:18:41;-0.20;95.90
10411;DHT22;5251;52.112;8.606;2023-02-28T04:21:09;-0.20;95.90
10411;DHT22;5251;52.112;8.606;2023-02-28T04:23:35;-0.20;95.90
10411;DHT22;5251;52.112;8.606;2023-02-28T04:26:01;-0.20;96.00
10411;DHT22;5251;52.112;8.606;2023-02-28T04:28:26;-0.30;95.90
10411;DHT22;5251;52.112;8.606;2023-02-28T04:30:57;-0.30;96.00
10411;DHT22;5251;52.112;8.606;2023-02-28T04:33:23;-0.30;96.00
10411;DHT22;5251;52.112;8.606;2023-02-28T04:35:48;-0.30;96.00
10411;DHT22;5251;52.112;8.606;2023-02-28T04:38:22;-0.30;96.10
10411;DHT22;5251;52.112;8.606;2023-02-28T04:40:48;-0.30;96.10
10411;DHT22;5251;52.112;8.606;2023-02-28T04:43:13;-0.40;96.10
10411;DHT22;5251;52.112;8.606;2023-02-28T04:45:39;-0.40;96.10
10411;DHT22;5251;52.112;8.606;2023-02-28T04:48:05;-0.40;96.10
10411;DHT22;5251;52.112;8.606;2023-02-28T04:50:30;-0.40;96.20
10411;DHT22;5251;52.112;8.606;2023-02-28T04:52:56;-0.40;96.20
10411;DHT22;5251;52.112;8.606;2023-02-28T04:55:22;-0.50;96.10
10411;DHT22;5251;52.112;8.606;2023-02-28T04:57:47;-0.50;96.10
10411;DHT22;5251;52.112;8.606;2023-02-28T05:00:13;-0.50;96.10
10411;DHT22;5251;52.112;8.606;2023-02-28T05:02:42;-0.60;96.20
10411;DHT22;5251;52.112;8.606;2023-02-28T05:05:07;-0.60;96.20
10411;DHT22;5251;52.112;8.606;2023-02-28T05:07:33;-0.60;96.20
10411;DHT22;5251;52.112;8.606;2023-02-28T05:09:59;-0.60;96.10
10411;DHT22;5251;52.112;8.606;2023-02-28T05:12:24;-0.60;96.10
10411;DHT22;5251;52.112;8.606;2023-02-28T05:14:50;-0.60;96.10
10411;DHT22;5251;52.112;8.606;2023-02-28T05:17:16;-0.70;96.10
10411;DHT22;5251;52.112;8.606;2023-02-28T05:19:42;-0.70;96.10
10411;DHT22;5251;52.112;8.606;2023-02-28T05:22:13;-0.70;96.10
10411;DHT22;5251;52.112;8.606;2023-02-28T05:24:40;-0.80;96.10
10411;DHT22;5251;52.112;8.606;2023-02-28T05:27:08;-0.80;96.10
10411;DHT22;5251;52.112;8.606;2023-02-28T05:29:34;-0.80;96.10
10411;DHT22;5251;52.112;8.606;2023-02-28T05:32:12;-0.80;96.20
10411;DHT22;5251;52.112;8.606;2023-02-28T05:34:38;-0.80;96.30
10411;DHT22;5251;52.112;8.606;2023-02-28T05:37:05;-0.80;96.40
10411;DHT22;5251;52.112;8.606;2023-02-28T05:39:32;-0.80;96.40
10411;DHT22;5251;52.112;8.606;2023-02-28T05:41:57;-0.90;96.40
10411;DHT22;5251;52.112;8.606;2023-02-28T05:44:23;-0.90;96.40
10411;DHT22;5251;52.112;8.606;2023-02-28T05:46:49;-0.90;96.40
10411;DHT22;5251;52.112;8.606;2023-02-28T05:49:15;-0.90;96.50
10411;DHT22;5251;52.112;8.606;2023-02-28T05:51:40;-0.90;96.50
10411;DHT22;5251;52.112;8.606;2023-02-28T05:54:06;-0.90;96.80
10411;DHT22;5251;52.112;8.606;2023-02-28T05:56:32;-0.90;96.60
10411;DHT22;5251;52.112;8.606;2023-02-28T05:59:01;-0.90;96.60
10411;DHT22;5251;52.112;8.606;2023-02-28T06:01:34;-0.90;96.70
10411;DHT22;5251;52.112;8.606;2023-02-28T06:04:01;-0.90;96.80
10411;DHT22;5251;52.112;8.606;2023-02-28T06:06:27;-1.00;96.70
10411;DHT22;5251;52.112;8.606;2023-02-28T06:08:53;-1.00;96.70
10411;DHT22;5251;52.112;8.606;2023-02-28T06:11:19;-1.00;96.70
10411;DHT22;5251;52.112;8.606;2023-02-28T06:13:45;-1.00;96.70
10411;DHT22;5251;52.112;8.606;2023-02-28T06:16:11;-1.00;96.70
10411;DHT22;5251;52.112;8.606;2023-02-28T06:18:37;-1.00;96.70
10411;DHT22;5251;52.112;8.606;2023-02-28T06:21:03;-1.00;96.70
10411;DHT22;5251;52.112;8.606;2023-02-28T06:23:29;-1.00;96.70
10411;DHT22;5251;52.112;8.606;2023-02-28T06:25:55;-1.00;96.70
10411;DHT22;5251;52.112;8.606;2023-02-28T06:28:24;-1.00;96.70
10411;DHT22;5251;52.112;8.606;2023-02-28T06:30:49;-1.00;96.70
10411;DHT22;5251;52.112;8.606;2023-02-28T06:33:15;-1.00;96.70
10411;DHT22;5251;52.112;8.606;2023-02-28T06:35:44;-1.10;96.80
10411;DHT22;5251;52.112;8.606;2023-02-28T06:38:09;-1.10;96.80
10411;DHT22;5251;52.112;8.606;2023-02-28T06:40:36;-1.00;96.90
10411;DHT22;5251;52.112;8.606;2023-02-28T06:43:02;-1.00;96.90
10411;DHT22;5251;52.112;8.606;2023-02-28T06:45:28;-1.00;97.00
10411;DHT22;5251;52.112;8.606;2023-02-28T06:47:54;-1.00;97.00
10411;DHT22;5251;52.112;8.606;2023-02-28T06:50:19;-1.00;97.10
10411;DHT22;5251;52.112;8.606;2023-02-28T06:52:46;-1.00;97.10
10411;DHT22;5251;52.112;8.606;2023-02-28T06:55:12;-1.00;97.10
10411;DHT22;5251;52.112;8.606;2023-02-28T06:57:37;-1.00;97.20
10411;DHT22;5251;52.112;8.606;2023-02-28T07:00:08;-1.00;97.20
10411;DHT22;5251;52.112;8.606;2023-02-28T07:02:35;-0.90;97.30
10411;DHT22;5251;52.112;8.606;2023-02-28T07:05:01;-0.90;97.40
10411;DHT22;5251;52.112;8.606;2023-02-28T07:07:26;-0.90;97.40
10411;DHT22;5251;52.112;8.606;2023-02-28T07:09:52;-0.90;97.60
10411;DHT22;5251;52.112;8.606;2023-02-28T07:12:17;-0.80;97.80
10411;DHT22;5251;52.112;8.606;2023-02-28T07:14:43;-0.70;98.00
10411;DHT22;5251;52.112;8.606;2023-02-28T07:17:09;-0.70;98.10
10411;DHT22;5251;52.112;8.606;2023-02-28T07:19:40;-0.70;98.60
10411;DHT22;5251;52.112;8.606;2023-02-28T07:22:06;-0.60;98.50
10411;DHT22;5251;52.112;8.606;2023-02-28T07:24:32;-0.50;98.60
10411;DHT22;5251;52.112;8.606;2023-02-28T07:26:58;-0.40;98.60
10411;DHT22;5251;52.112;8.606;2023-02-28T07:29:25;-0.30;98.60
10411;DHT22;5251;52.112;8.606;2023-02-28T07:31:51;-0.30;98.70
10411;DHT22;5251;52.112;8.606;2023-02-28T07:34:19;-0.20;98.80
10411;DHT22;5251;52.112;8.606;2023-02-28T07:36:44;-0.10;99.00
10411;DHT22;5251;52.112;8.606;2023-02-28T07:39:10;0.00;99.10
10411;DHT22;5251;52.112;8.606;2023-02-28T07:41:36;0.10;99.10
10411;DHT22;5251;52.112;8.606;2023-02-28T07:44:11;0.10;99.10
10411;DHT22;5251;52.112;8.606;2023-02-28T07:46:37;0.20;99.20
10411;DHT22;5251;52.112;8.606;2023-02-28T07:49:03;0.30;99.20
10411;DHT22;5251;52.112;8.606;2023-02-28T07:51:29;0.40;99.30
10411;DHT22;5251;52.112;8.606;2023-02-28T07:53:55;0.40;99.30
10411;DHT22;5251;52.112;8.606;2023-02-28T07:56:21;0.50;99.30
10411;DHT22;5251;52.112;8.606;2023-02-28T07:58:47;0.50;99.30
10411;DHT22;5251;52.112;8.606;2023-02-28T08:01:13;0.60;99.40
10411;DHT22;5251;52.112;8.606;2023-02-28T08:03:39;0.70;99.40
10411;DHT22;5251;52.112;8.606;2023-02-28T08:06:05;0.70;99.40
10411;DHT22;5251;52.112;8.606;2023-02-28T08:08:31;0.80;99.30
10411;DHT22;5251;52.112;8.606;2023-02-28T08:11:01;0.90;99.20
10411;DHT22;5251;52.112;8.606;2023-02-28T08:13:28;0.90;99.20
10411;DHT22;5251;52.112;8.606;2023-02-28T08:15:55;1.00;99.20
10411;DHT22;5251;52.112;8.606;2023-02-28T08:18:21;1.00;99.20
10411;DHT22;5251;52.112;8.606;2023-02-28T08:20:47;1.10;99.30
10411;DHT22;5251;52.112;8.606;2023-02-28T08:23:13;1.10;99.30
10411;DHT22;5251;52.112;8.606;2023-02-28T08:25:39;1.20;99.30
10411;DHT22;5251;52.112;8.606;2023-02-28T08:28:04;1.30;99.40
10411;DHT22;5251;52.112;8.606;2023-02-28T08:30:30;1.30;99.40
10411;DHT22;5251;52.112;8.606;2023-02-28T08:32:56;1.40;99.40
10411;DHT22;5251;52.112;8.606;2023-02-28T08:35:22;1.50;99.40
10411;DHT22;5251;52.112;8.606;2023-02-28T08:37:48;1.50;99.20
10411;DHT22;5251;52.112;8.606;2023-02-28T08:40:14;1.60;99.20
10411;DHT22;5251;52.112;8.606;2023-02-28T08:42:44;1.70;99.10
10411;DHT22;5251;52.112;8.606;2023-02-28T08:45:10;1.70;99.00
10411;DHT22;5251;52.112;8.606;2023-02-28T08:47:36;1.80;99.00
10411;DHT22;5251;52.112;8.606;2023-02-28T08:50:02;1.80;99.00
10411;DHT22;5251;52.112;8.606;2023-02-28T08:52:27;1.90;99.00
10411;DHT22;5251;52.112;8.606;2023-02-28T08:54:53;2.00;99.00
10411;DHT22;5251;52.112;8.606;2023-02-28T08:57:18;2.00;99.00
10411;DHT22;5251;52.112;8.606;2023-02-28T08:59:44;2.10;99.00
10411;DHT22;5251;52.112;8.606;2023-02-28T09:02:13;2.10;98.60
10411;DHT22;5251;52.112;8.606;2023-02-28T09:04:39;2.20;98.40
10411;DHT22;5251;52.112;8.606;2023-02-28T09:07:05;2.30;98.40
10411;DHT22;5251;52.112;8.606;2023-02-28T09:09:31;2.30;98.20
10411;DHT22;5251;52.112;8.606;2023-02-28T09:11:57;2.40;98.10
10411;DHT22;5251;52.112;8.606;2023-02-28T09:14:23;2.50;97.70
10411;DHT22;5251;52.112;8.606;2023-02-28T09:16:49;2.60;97.50
10411;DHT22;5251;52.112;8.606;2023-02-28T09:19:15;2.60;97.10
10411;DHT22;5251;52.112;8.606;2023-02-28T09:21:40;2.70;95.80
10411;DHT22;5251;52.112;8.606;2023-02-28T09:24:06;2.80;95.10
10411;DHT22;5251;52.112;8.606;2023-02-28T09:26:32;2.90;94.10
10411;DHT22;5251;52.112;8.606;2023-02-28T09:28:59;3.00;93.70
10411;DHT22;5251;52.112;8.606;2023-02-28T09:31:27;3.10;93.60
10411;DHT22;5251;52.112;8.606;2023-02-28T09:33:55;3.30;93.20
10411;DHT22;5251;52.112;8.606;2023-02-28T09:36:22;3.40;92.20
10411;DHT22;5251;52.112;8.606;2023-02-28T09:38:48;3.50;92.00
10411;DHT22;5251;52.112;8.606;2023-02-28T09:41:19;3.60;91.00
10411;DHT22;5251;52.112;8.606;2023-02-28T09:43:49;3.70;91.20
10411;DHT22;5251;52.112;8.606;2023-02-28T09:46:25;3.80;90.60
10411;DHT22;5251;52.112;8.606;2023-02-28T09:48:53;4.00;90.10
10411;DHT22;5251;52.112;8.606;2023-02-28T09:51:34;4.10;89.90
10411;DHT22;5251;52.112;8.606;2023-02-28T09:54:02;4.20;88.30
10411;DHT22;5251;52.112;8.606;2023-02-28T09:56:35;4.40;89.30
10411;DHT22;5251;52.112;8.606;2023-02-28T10:02:23;4.60;89.10
10411;DHT22;5251;52.112;8.606;2023-02-28T10:05:14;4.70;88.60
10411;DHT22;5251;52.112;8.606;2023-02-28T10:10:44;4.90;86.40
10411;DHT22;5251;52.112;8.606;2023-02-28T10:13:19;5.00;86.60
10411;DHT22;5251;52.112;8.606;2023-02-28T10:15:48;5.10;85.20
10411;DHT22;5251;52.112;8.606;2023-02-28T10:18:30;5.20;85.30
10411;DHT22;5251;52.112;8.606;2023-02-28T10:20:57;5.20;85.30
10411;DHT22;5251;52.112;8.606;2023-02-28T10:23:34;5.40;84.60
10411;DHT22;5251;52.112;8.606;2023-02-28T10:26:14;5.50;83.30
10411;DHT22;5251;52.112;8.606;2023-02-28T10:28:41;5.50;84.40
10411;DHT22;5251;52.112;8.606;2023-02-28T10:31:14;5.60;82.90
10411;DHT22;5251;52.112;8.606;2023-02-28T10:33:40;5.70;82.60
10411;DHT22;5251;52.112;8.606;2023-02-28T10:36:08;5.70;80.70
10411;DHT22;5251;52.112;8.606;2023-02-28T10:38:38;5.80;82.10
10411;DHT22;5251;52.112;8.606;2023-02-28T10:41:15;5.80;82.10
10411;DHT22;5251;52.112;8.606;2023-02-28T10:43:42;5.90;81.10
10411;DHT22;5251;52.112;8.606;2023-02-28T10:48:39;6.00;79.90
10411;DHT22;5251;52.112;8.606;2023-02-28T10:51:08;6.00;81.00
10411;DHT22;5251;52.112;8.606;2023-02-28T10:58:55;6.20;79.70
10411;DHT22;5251;52.112;8.606;2023-02-28T11:01:24;6.20;79.50
10411;DHT22;5251;52.112;8.606;2023-02-28T11:03:51;6.30;76.70
10411;DHT22;5251;52.112;8.606;2023-02-28T11:06:32;6.40;77.30
10411;DHT22;5251;52.112;8.606;2023-02-28T11:09:14;6.40;75.70
10411;DHT22;5251;52.112;8.606;2023-02-28T11:11:45;6.40;74.80
10411;DHT22;5251;52.112;8.606;2023-02-28T11:14:27;6.50;75.60
10411;DHT22;5251;52.112;8.606;2023-02-28T11:16:54;6.50;76.20
10411;DHT22;5251;52.112;8.606;2023-02-28T11:19:39;6.60;77.00
10411;DHT22;5251;52.112;8.606;2023-02-28T11:22:06;6.60;77.00
10411;DHT22;5251;52.112;8.606;2023-02-28T11:24:42;6.60;77.40
10411;DHT22;5251;52.112;8.606;2023-02-28T11:29:58;6.80;75.70
10411;DHT22;5251;52.112;8.606;2023-02-28T11:32:28;6.90;75.80
10411;DHT22;5251;52.112;8.606;2023-02-28T11:37:41;7.00;74.80
10411;DHT22;5251;52.112;8.606;2023-02-28T11:43:21;7.00;72.70
10411;DHT22;5251;52.112;8.606;2023-02-28T11:46:31;7.00;72.50
10411;DHT22;5251;52.112;8.606;2023-02-28T11:49:28;7.00;73.30
10411;DHT22;5251;52.112;8.606;2023-02-28T11:54:40;6.90;71.30
10411;DHT22;5251;52.112;8.606;2023-02-28T12:10:44;6.80;74.30
10411;DHT22;5251;52.112;8.606;2023-02-28T12:27:19;7.00;73.80
10411;DHT22;5251;52.112;8.606;2023-02-28T12:29:58;7.10;74.10
10411;DHT22;5251;52.112;8.606;2023-02-28T12:32:30;7.10;72.50
10411;DHT22;5251;52.112;8.606;2023-02-28T12:35:12;7.20;72.80
10411;DHT22;5251;52.112;8.606;2023-02-28T12:37:47;7.30;71.90
10411;DHT22;5251;52.112;8.606;2023-02-28T12:40:23;7.30;71.70
10411;DHT22;5251;52.112;8.606;2023-02-28T12:42:52;7.40;71.50
10411;DHT22;5251;52.112;8.606;2023-02-28T12:45:26;7.40;71.80
10411;DHT22;5251;52.112;8.606;2023-02-28T12:47:58;7.40;71.60
10411;DHT22;5251;52.112;8.606;2023-02-28T12:50:26;7.50;70.20
10411;DHT22;5251;52.112;8.606;2023-02-28T12:58:23;7.60;69.00
10411;DHT22;5251;52.112;8.606;2023-02-28T13:06:50;7.60;71.20
10411;DHT22;5251;52.112;8.606;2023-02-28T13:09:16;7.60;71.70
10411;DHT22;5251;52.112;8.606;2023-02-28T13:11:50;7.60;70.90
10411;DHT22;5251;52.112;8.606;2023-02-28T13:14:24;7.60;71.10
10411;DHT22;5251;52.112;8.606;2023-02-28T13:19:59;7.60;70.00
10411;DHT22;5251;52.112;8.606;2023-02-28T13:24:55;7.60;69.60
10411;DHT22;5251;52.112;8.606;2023-02-28T13:27:39;7.60;69.90
10411;DHT22;5251;52.112;8.606;2023-02-28T13:33:32;7.60;70.90
10411;DHT22;5251;52.112;8.606;2023-02-28T13:45:19;7.60;69.90
10411;DHT22;5251;52.112;8.606;2023-02-28T13:49:28;7.60;69.20
10411;DHT22;5251;52.112;8.606;2023-02-28T13:55:13;7.60;70.60
10411;DHT22;5251;52.112;8.606;2023-02-28T13:58:07;7.60;70.80
10411;DHT22;5251;52.112;8.606;2023-02-28T14:00:42;7.60;71.30
10411;DHT22;5251;52.112;8.606;2023-02-28T14:05:44;7.60;69.00
10411;DHT22;5251;52.112;8.606;2023-02-28T14:08:21;7.60;69.00
10411;DHT22;5251;52.112;8.606;2023-02-28T14:10:50;7.60;70.60
10411;DHT22;5251;52.112;8.606;2023-02-28T14:15:57;7.60;69.40
10411;DHT22;5251;52.112;8.606;2023-02-28T14:18:27;7.50;69.70
10411;DHT22;5251;52.112;8.606;2023-02-28T14:21:01;7.50;70.80
10411;DHT22;5251;52.112;8.606;2023-02-28T14:23:34;7.60;70.10
10411;DHT22;5251;52.112;8.606;2023-02-28T14:26:12;7.60;70.20
10411;DHT22;5251;52.112;8.606;2023-02-28T14:28:48;7.60;69.90
10411;DHT22;5251;52.112;8.606;2023-02-28T14:31:25;7.60;71.00
10411;DHT22;5251;52.112;8.606;2023-02-28T14:36:52;7.50;68.20
10411;DHT22;5251;52.112;8.606;2023-02-28T14:39:24;7.40;68.20
10411;DHT22;5251;52.112;8.606;2023-02-28T14:41:50;7.50;67.40
10411;DHT22;5251;52.112;8.606;2023-02-28T14:44:21;7.50;68.70
10411;DHT22;5251;52.112;8.606;2023-02-28T14:46:55;7.50;67.10
10411;DHT22;5251;52.112;8.606;2023-02-28T14:49:31;7.50;69.40
10411;DHT22;5251;52.112;8.606;2023-02-28T14:52:07;7.50;68.60
10411;DHT22;5251;52.112;8.606;2023-02-28T14:54:38;7.50;67.90
10411;DHT22;5251;52.112;8.606;2023-02-28T14:57:05;7.50;69.10
10411;DHT22;5251;52.112;8.606;2023-02-28T14:59:33;7.50;68.90
10411;DHT22;5251;52.112;8.606;2023-02-28T15:02:19;7.40;68.80
10411;DHT22;5251;52.112;8.606;2023-02-28T15:05:14;7.50;68.90
10411;DHT22;5251;52.112;8.606;2023-02-28T15:07:42;7.40;69.00
10411;DHT22;5251;52.112;8.606;2023-02-28T15:12:37;7.40;68.80
10411;DHT22;5251;52.112;8.606;2023-02-28T15:15:05;7.40;69.60
10411;DHT22;5251;52.112;8.606;2023-02-28T15:17:32;7.40;69.80
10411;DHT22;5251;52.112;8.606;2023-02-28T15:19:58;7.40;69.60
10411;DHT22;5251;52.112;8.606;2023-02-28T15:22:36;7.40;70.30
10411;DHT22;5251;52.112;8.606;2023-02-28T15:25:03;7.40;70.60
10411;DHT22;5251;52.112;8.606;2023-02-28T15:27:33;7.40;70.80
10411;DHT22;5251;52.112;8.606;2023-02-28T15:30:06;7.30;69.70
10411;DHT22;5251;52.112;8.606;2023-02-28T15:32:37;7.40;69.40
10411;DHT22;5251;52.112;8.606;2023-02-28T15:38:28;7.30;70.40
10411;DHT22;5251;52.112;8.606;2023-02-28T15:40:55;7.30;70.00
10411;DHT22;5251;52.112;8.606;2023-02-28T15:43:30;7.30;70.30
10411;DHT22;5251;52.112;8.606;2023-02-28T15:46:11;7.30;70.90
10411;DHT22;5251;52.112;8.606;2023-02-28T15:48:55;7.30;71.70
10411;DHT22;5251;52.112;8.606;2023-02-28T15:51:32;7.20;71.60
10411;DHT22;5251;52.112;8.606;2023-02-28T15:54:40;7.20;71.60
10411;DHT22;5251;52.112;8.606;2023-02-28T15:56:53;7.10;71.50
10411;DHT22;5251;52.112;8.606;2023-02-28T15:59:23;7.10;71.50
10411;DHT22;5251;52.112;8.606;2023-02-28T16:04:34;7.00;71.20
10411;DHT22;5251;52.112;8.606;2023-02-28T16:07:04;7.00;71.10
10411;DHT22;5251;52.112;8.606;2023-02-28T16:09:30;7.00;71.40
10411;DHT22;5251;52.112;8.606;2023-02-28T16:11:59;7.00;71.90
10411;DHT22;5251;52.112;8.606;2023-02-28T16:14:28;7.00;71.70
10411;DHT22;5251;52.112;8.606;2023-02-28T16:17:16;7.00;72.00
10411;DHT22;5251;52.112;8.606;2023-02-28T16:19:44;6.90;72.20
10411;DHT22;5251;52.112;8.606;2023-02-28T16:22:10;6.90;71.70
10411;DHT22;5251;52.112;8.606;2023-02-28T16:24:36;6.90;72.20
10411;DHT22;5251;52.112;8.606;2023-02-28T16:27:02;6.80;72.40
10411;DHT22;5251;52.112;8.606;2023-02-28T16:29:33;6.80;72.60
10411;DHT22;5251;52.112;8.606;2023-02-28T16:32:01;6.80;72.90
10411;DHT22;5251;52.112;8.606;2023-02-28T16:34:27;6.70;72.70
10411;DHT22;5251;52.112;8.606;2023-02-28T16:36:52;6.70;72.70
10411;DHT22;5251;52.112;8.606;2023-02-28T16:39:18;6.70;72.70
10411;DHT22;5251;52.112;8.606;2023-02-28T16:41:47;6.70;73.10
10411;DHT22;5251;52.112;8.606;2023-02-28T16:44:26;6.50;72.90
10411;DHT22;5251;52.112;8.606;2023-02-28T16:46:53;6.60;73.40
10411;DHT22;5251;52.112;8.606;2023-02-28T16:49:18;6.50;73.10
10411;DHT22;5251;52.112;8.606;2023-02-28T16:51:44;6.50;73.50
10411;DHT22;5251;52.112;8.606;2023-02-28T16:54:10;6.40;73.40
10411;DHT22;5251;52.112;8.606;2023-02-28T16:56:35;6.40;73.80
10411;DHT22;5251;52.112;8.606;2023-02-28T16:59:02;6.30;73.70
10411;DHT22;5251;52.112;8.606;2023-02-28T17:01:28;6.30;73.70
10411;DHT22;5251;52.112;8.606;2023-02-28T17:03:54;6.20;73.90
10411;DHT22;5251;52.112;8.606;2023-02-28T17:06:22;6.20;74.20
10411;DHT22;5251;52.112;8.606;2023-02-28T17:08:50;6.10;74.20
10411;DHT22;5251;52.112;8.606;2023-02-28T17:11:16;6.10;74.50
10411;DHT22;5251;52.112;8.606;2023-02-28T17:13:42;6.00;74.40
10411;DHT22;5251;52.112;8.606;2023-02-28T17:16:28;5.90;74.80
10411;DHT22;5251;52.112;8.606;2023-02-28T17:18:57;5.90;74.90
10411;DHT22;5251;52.112;8.606;2023-02-28T17:21:24;5.80;75.00
10411;DHT22;5251;52.112;8.606;2023-02-28T17:23:49;5.80;75.40
10411;DHT22;5251;52.112;8.606;2023-02-28T17:26:17;5.70;75.60
10411;DHT22;5251;52.112;8.606;2023-02-28T17:28:48;5.60;75.70
10411;DHT22;5251;52.112;8.606;2023-02-28T17:31:14;5.60;76.00
10411;DHT22;5251;52.112;8.606;2023-02-28T17:33:40;5.60;76.00
10411;DHT22;5251;52.112;8.606;2023-02-28T17:36:08;5.50;76.10
10411;DHT22;5251;52.112;8.606;2023-02-28T17:38:35;5.50;76.30
10411;DHT22;5251;52.112;8.606;2023-02-28T17:41:01;5.50;76.60
10411;DHT22;5251;52.112;8.606;2023-02-28T17:43:27;5.50;76.70
10411;DHT22;5251;52.112;8.606;2023-02-28T17:45:53;5.40;76.70
10411;DHT22;5251;52.112;8.606;2023-02-28T17:48:19;5.40;77.00
10411;DHT22;5251;52.112;8.606;2023-02-28T17:50:45;5.30;76.90
10411;DHT22;5251;52.112;8.606;2023-02-28T17:53:11;5.30;77.00
10411;DHT22;5251;52.112;8.606;2023-02-28T17:55:37;5.30;77.20
10411;DHT22;5251;52.112;8.606;2023-02-28T17:58:02;5.20;77.10
10411;DHT22;5251;52.112;8.606;2023-02-28T18:00:28;5.20;77.40
10411;DHT22;5251;52.112;8.606;2023-02-28T18:02:54;5.10;77.50
10411;DHT22;5251;52.112;8.606;2023-02-28T18:05:20;5.10;77.40
10411;DHT22;5251;52.112;8.606;2023-02-28T18:07:46;5.10;77.70
10411;DHT22;5251;52.112;8.606;2023-02-28T18:10:15;5.00;77.60
10411;DHT22;5251;52.112;8.606;2023-02-28T18:12:47;5.00;77.70
10411;DHT22;5251;52.112;8.606;2023-02-28T18:15:14;4.90;77.80
10411;DHT22;5251;52.112;8.606;2023-02-28T18:17:40;4.90;78.00
10411;DHT22;5251;52.112;8.606;2023-02-28T18:20:06;4.80;78.10